createdAt,value
2023-08-15T00:01:16.298Z,5.07
2023-08-15T00:04:18.578Z,5.38
2023-08-15T00:07:21.137Z,5.53
2023-08-15T00:10:23.551Z,5.47
2023-08-15T00:13:25.824Z,5.15
2023-08-15T00:16:28.185Z,4.57
2023-08-15T00:19:30.678Z,5.43
2023-08-15T00:22:32.936Z,5.30
2023-08-15T00:25:35.258Z,5.55
2023-08-15T00:28:37.475Z,5.60
2023-08-15T00:31:40.680Z,5.30
2023-08-15T00:34:42.925Z,5.13
2023-08-15T00:37:45.262Z,5.30
2023-08-15T00:40:47.581Z,4.95
2023-08-15T00:43:54.493Z,4.90
2023-08-15T00:46:56.922Z,4.90
2023-08-15T00:50:00.553Z,4.88
2023-08-15T00:53:04.170Z,5.25
2023-08-15T00:56:08.344Z,5.18
2023-08-15T00:59:10.594Z,5.22
2023-08-15T01:02:13.389Z,4.87
2023-08-15T01:05:17.277Z,5.55
2023-08-15T01:08:19.640Z,5.60
2023-08-15T01:11:21.914Z,5.63
2023-08-15T01:14:30.774Z,5.72
2023-08-15T01:17:38.298Z,5.40
2023-08-15T01:20:41.618Z,5.85
2023-08-15T01:23:47.163Z,5.05
2023-08-15T01:26:49.480Z,5.72
2023-08-15T01:29:51.706Z,5.95
2023-08-15T01:33:02.935Z,6.40
2023-08-15T01:36:22.586Z,6.10
2023-08-15T01:39:30.076Z,6.10
2023-08-15T01:42:33.016Z,6.47
2023-08-15T01:45:36.247Z,5.90
2023-08-15T01:48:42.797Z,6.43
2023-08-15T01:51:47.274Z,6.15
2023-08-15T01:54:49.580Z,6.35
2023-08-15T01:57:53.169Z,6.47
2023-08-15T02:00:55.504Z,5.90
2023-08-15T02:03:57.873Z,6.20
2023-08-15T02:07:00.329Z,6.07
2023-08-15T02:10:02.747Z,6.82
2023-08-15T02:13:05.128Z,6.25
2023-08-15T02:16:07.703Z,5.53
2023-08-15T02:19:10.090Z,5.70
2023-08-15T02:22:12.768Z,5.80
2023-08-15T02:25:15.185Z,5.88
2023-08-15T02:28:17.471Z,5.90
2023-08-15T02:31:19.811Z,5.88
2023-08-15T02:34:22.151Z,5.93
2023-08-15T02:37:24.388Z,6.20
2023-08-15T02:40:30.544Z,5.80
2023-08-15T02:43:33.072Z,5.97
2023-08-15T02:46:35.518Z,6.07
2023-08-15T02:49:37.854Z,5.90
2023-08-15T02:52:40.241Z,6.20
2023-08-15T02:55:42.484Z,6.57
2023-08-15T02:58:45.150Z,6.10
2023-08-15T03:01:48.561Z,6.75
2023-08-15T03:04:50.949Z,7.40
2023-08-15T03:07:53.685Z,6.63
2023-08-15T03:10:56.058Z,7.20
2023-08-15T03:13:59.598Z,6.93
2023-08-15T03:17:03.442Z,6.70
2023-08-15T03:20:07.344Z,6.80
2023-08-15T03:23:10.044Z,7.25
2023-08-15T03:26:13.226Z,7.15
2023-08-15T03:29:15.954Z,7.43
2023-08-15T03:32:18.185Z,6.80
2023-08-15T03:35:22.732Z,7.30
2023-08-15T03:38:25.445Z,8.05
2023-08-15T03:41:28.199Z,6.53
2023-08-15T03:44:30.469Z,6.93
2023-08-15T03:47:33.674Z,7.05
2023-08-15T03:50:37.331Z,7.17
2023-08-15T03:53:39.624Z,7.20
2023-08-15T03:56:42.274Z,6.72
2023-08-15T03:59:44.966Z,6.85
2023-08-15T04:02:48.464Z,6.93
2023-08-15T04:05:50.872Z,6.83
2023-08-15T04:08:53.102Z,7.68
2023-08-15T04:11:55.379Z,7.25
2023-08-15T04:14:57.628Z,7.55
2023-08-15T04:18:00.081Z,7.40
2023-08-15T04:21:11.388Z,7.57
2023-08-15T04:24:13.786Z,6.60
2023-08-15T04:27:22.791Z,6.70
2023-08-15T04:30:26.124Z,7.18
2023-08-15T04:33:28.420Z,7.15
2023-08-15T04:36:31.214Z,7.27
2023-08-15T04:39:33.486Z,7.38
2023-08-15T04:42:36.605Z,7.43
2023-08-15T04:45:42.188Z,7.25
2023-08-15T04:48:47.469Z,7.57
2023-08-15T04:51:49.899Z,7.27
2023-08-15T04:54:52.430Z,7.68
2023-08-15T04:57:54.754Z,7.35
2023-08-15T05:00:57.333Z,7.72
2023-08-15T05:04:01.320Z,7.10
2023-08-15T05:07:05.404Z,7.90
2023-08-15T05:10:09.503Z,7.03
2023-08-15T05:13:14.783Z,7.30
2023-08-15T05:16:17.092Z,7.35
2023-08-15T05:19:19.485Z,7.03
2023-08-15T05:22:21.716Z,7.27
2023-08-15T05:25:24.084Z,7.93
2023-08-15T05:28:26.515Z,7.15
2023-08-15T05:31:29.225Z,6.55
2023-08-15T05:34:31.492Z,7.60
2023-08-15T05:37:33.767Z,7.37
2023-08-15T05:40:36.099Z,6.75
2023-08-15T05:43:38.428Z,6.57
2023-08-15T05:46:40.709Z,7.20
2023-08-15T05:49:43.994Z,6.80
2023-08-15T05:52:46.264Z,6.87
2023-08-15T05:55:48.551Z,6.90
2023-08-15T05:58:50.797Z,6.75
2023-08-15T06:01:53.067Z,6.75
2023-08-15T06:04:55.278Z,6.88
2023-08-15T06:07:57.970Z,6.17
2023-08-15T06:11:00.259Z,6.30
2023-08-15T06:14:02.555Z,6.38
2023-08-15T06:17:06.242Z,6.60
2023-08-15T06:20:09.154Z,5.95
2023-08-15T06:23:11.431Z,5.57
2023-08-15T06:26:13.861Z,5.10
2023-08-15T06:29:16.070Z,5.53
2023-08-15T06:32:29.037Z,5.25
2023-08-15T06:35:31.745Z,5.80
2023-08-15T06:38:34.063Z,5.40
2023-08-15T06:41:36.287Z,5.70
2023-08-15T06:44:38.877Z,4.95
2023-08-15T06:47:41.262Z,5.07
2023-08-15T06:50:44.095Z,5.20
2023-08-15T06:53:54.151Z,6.20
2023-08-15T06:56:56.595Z,7.78
2023-08-15T06:59:58.932Z,5.95
2023-08-15T07:03:01.284Z,6.30
2023-08-15T07:06:05.264Z,6.13
2023-08-15T07:09:08.073Z,6.30
2023-08-15T07:12:11.049Z,6.53
2023-08-15T07:15:13.393Z,6.40
2023-08-15T07:18:15.685Z,6.38
2023-08-15T07:21:21.130Z,5.78
2023-08-15T07:24:24.469Z,5.90
2023-08-15T07:27:26.923Z,5.78
2023-08-15T07:30:30.172Z,5.38
2023-08-15T07:33:32.918Z,5.72
2023-08-15T07:36:35.768Z,5.15
2023-08-15T07:39:38.072Z,5.03
2023-08-15T07:42:40.427Z,5.18
2023-08-15T07:45:42.799Z,4.50
2023-08-15T07:48:45.521Z,4.45
2023-08-15T07:51:47.881Z,4.43
2023-08-15T07:54:50.139Z,4.07
2023-08-15T07:57:52.492Z,4.25
2023-08-15T08:00:54.758Z,4.60
2023-08-15T08:03:57.156Z,4.20
2023-08-15T08:06:59.552Z,4.28
2023-08-15T08:10:02.135Z,4.10
2023-08-15T08:13:07.644Z,4.25
2023-08-15T08:16:10.076Z,4.00
2023-08-15T08:19:12.349Z,3.80
2023-08-15T08:22:14.864Z,3.97
2023-08-15T08:25:25.084Z,3.70
2023-08-15T08:28:27.528Z,3.50
2023-08-15T08:31:29.845Z,3.65
2023-08-15T08:34:32.242Z,3.78
2023-08-15T08:37:34.583Z,3.65
2023-08-15T08:40:37.039Z,3.60
2023-08-15T08:43:40.924Z,3.63
2023-08-15T08:46:45.168Z,3.60
2023-08-15T08:49:49.227Z,4.15
2023-08-15T08:52:51.930Z,3.72
2023-08-15T08:55:54.280Z,2.93
2023-08-15T08:59:02.590Z,3.47
2023-08-15T09:02:06.295Z,2.90
2023-08-15T09:05:10.362Z,2.67
2023-08-15T09:08:12.770Z,2.92
2023-08-15T09:11:15.162Z,2.90
2023-08-15T09:14:18.575Z,3.20
2023-08-15T09:17:25.225Z,3.10
2023-08-15T09:20:28.151Z,2.95
2023-08-15T09:23:32.320Z,3.10
2023-08-15T09:26:36.551Z,3.13
2023-08-15T09:29:38.989Z,2.70
2023-08-15T09:32:43.006Z,2.90
2023-08-15T09:35:57.873Z,2.97
2023-08-15T09:39:01.595Z,3.03
2023-08-15T09:42:04.194Z,2.73
2023-08-15T09:45:08.552Z,2.70
2023-08-15T09:48:11.633Z,2.60
2023-08-15T09:51:19.334Z,2.63
2023-08-15T09:54:22.811Z,2.83
2023-08-15T09:57:26.922Z,2.60
2023-08-15T10:00:37.116Z,2.70
2023-08-15T10:03:46.190Z,2.70
2023-08-15T10:07:08.029Z,2.75
2023-08-15T10:10:16.591Z,2.90
2023-08-15T10:13:25.618Z,2.70
2023-08-15T10:16:28.999Z,2.60
2023-08-15T10:19:34.563Z,2.80
2023-08-15T10:22:36.858Z,2.55
2023-08-15T10:25:42.793Z,2.90
2023-08-15T10:28:47.448Z,2.73
2023-08-15T10:31:59.941Z,2.58
2023-08-15T10:35:04.045Z,2.90
2023-08-15T10:38:15.288Z,3.10
2023-08-15T10:41:21.528Z,3.03
2023-08-15T10:44:24.210Z,3.20
2023-08-15T10:47:26.453Z,2.83
2023-08-15T10:50:28.894Z,2.70
2023-08-15T10:53:31.232Z,2.95
2023-08-15T10:56:35.827Z,3.50
2023-08-15T10:59:38.182Z,2.97
2023-08-15T11:02:40.739Z,3.25
2023-08-15T11:05:43.476Z,3.13
2023-08-15T11:08:54.953Z,3.20
2023-08-15T11:12:06.081Z,3.63
2023-08-15T11:15:10.570Z,3.33
2023-08-15T11:18:21.742Z,3.33
2023-08-15T11:21:29.171Z,3.60
2023-08-15T11:24:32.501Z,3.45
2023-08-15T11:27:46.394Z,3.53
2023-08-15T11:30:48.804Z,3.40
2023-08-15T11:33:53.108Z,3.30
2023-08-15T11:36:55.594Z,3.33
2023-08-15T11:39:58.196Z,2.85
2023-08-15T11:43:01.351Z,3.08
2023-08-15T11:46:05.745Z,3.30
2023-08-15T11:49:16.621Z,3.00
2023-08-15T11:52:20.694Z,2.83
2023-08-15T11:55:24.182Z,3.00
2023-08-15T11:58:30.181Z,3.00
2023-08-15T12:01:42.861Z,2.97
2023-08-15T12:04:48.310Z,2.80
2023-08-15T12:07:51.270Z,2.75
2023-08-15T12:10:58.370Z,2.90
2023-08-15T12:14:00.662Z,3.20
2023-08-15T12:17:03.022Z,3.03
2023-08-15T12:20:07.823Z,3.22
2023-08-15T12:23:18.758Z,3.33
2023-08-15T12:26:27.108Z,3.28
2023-08-15T12:30:11.734Z,3.33
2023-08-15T12:32:52.084Z,2.93
2023-08-15T12:35:54.522Z,2.95
2023-08-15T12:38:56.788Z,3.00
2023-08-15T12:41:59.580Z,3.08
2023-08-15T12:45:01.833Z,3.10
2023-08-15T12:48:04.403Z,3.30
2023-08-15T12:51:06.681Z,3.00
2023-08-15T12:54:09.007Z,3.00
2023-08-15T12:57:11.493Z,2.75
2023-08-15T13:00:14.543Z,3.00
2023-08-15T13:03:16.962Z,2.97
2023-08-15T13:06:19.481Z,3.20
2023-08-15T13:09:21.873Z,3.10
2023-08-15T13:12:24.335Z,3.60
2023-08-15T13:15:27.079Z,3.20
2023-08-15T13:18:29.431Z,3.20
2023-08-15T13:21:31.822Z,3.22
2023-08-15T13:24:34.191Z,3.38
2023-08-15T13:27:36.509Z,3.30
2023-08-15T13:30:38.903Z,3.47
2023-08-15T13:33:42.643Z,3.40
2023-08-15T13:36:47.211Z,3.55
2023-08-15T13:39:49.473Z,3.25
2023-08-15T13:42:51.785Z,3.33
2023-08-15T13:45:54.101Z,3.30
2023-08-15T13:48:56.598Z,3.40
2023-08-15T13:51:58.836Z,3.35
2023-08-15T13:55:01.182Z,3.47
2023-08-15T13:58:04.104Z,3.80
2023-08-15T14:01:07.803Z,3.85
2023-08-15T14:04:10.021Z,3.63
2023-08-15T14:07:12.324Z,3.40
2023-08-15T14:10:15.098Z,3.35
2023-08-15T14:13:17.581Z,3.67
2023-08-15T14:16:19.902Z,3.78
2023-08-15T14:19:22.275Z,3.30
2023-08-15T14:22:24.839Z,3.50
2023-08-15T14:25:34.680Z,3.80
2023-08-15T14:28:36.937Z,3.70
2023-08-15T14:31:39.257Z,3.42
2023-08-15T14:34:41.521Z,3.77
2023-08-15T14:37:43.890Z,3.20
2023-08-15T14:40:46.504Z,3.80
2023-08-15T14:43:49.894Z,4.00
2023-08-15T14:46:52.146Z,3.63
2023-08-15T14:49:54.461Z,3.40
2023-08-15T14:52:56.754Z,3.63
2023-08-15T14:55:59.807Z,3.70
2023-08-15T14:59:02.027Z,3.40
2023-08-15T15:02:04.467Z,3.60
2023-08-15T15:05:07.670Z,3.80
2023-08-15T15:08:16.515Z,4.10
2023-08-15T15:11:25.416Z,3.80
2023-08-15T15:14:28.560Z,3.97
2023-08-15T15:17:30.810Z,3.92
2023-08-15T15:20:33.193Z,4.00
2023-08-15T15:23:35.500Z,3.65
2023-08-15T15:26:37.824Z,4.75
2023-08-15T15:29:40.150Z,3.97
2023-08-15T15:32:42.519Z,4.03
2023-08-15T15:35:44.852Z,3.80
2023-08-15T15:38:47.343Z,4.10
2023-08-15T15:41:49.627Z,4.00
2023-08-15T15:44:52.058Z,3.45
2023-08-15T15:47:54.402Z,3.90
2023-08-15T15:50:56.783Z,3.90
2023-08-15T15:53:59.030Z,3.85
2023-08-15T15:57:01.318Z,3.78
2023-08-15T16:00:03.993Z,3.97
2023-08-15T16:03:08.538Z,3.85
2023-08-15T16:06:10.898Z,3.77
2023-08-15T16:09:14.819Z,3.70
2023-08-15T16:12:17.055Z,3.72
2023-08-15T16:15:19.606Z,3.95
2023-08-15T16:18:21.873Z,3.90
2023-08-15T16:21:24.239Z,3.73
2023-08-15T16:24:26.507Z,3.67
2023-08-15T16:27:28.834Z,3.90
2023-08-15T16:30:31.097Z,3.60
2023-08-15T16:33:33.428Z,3.70
2023-08-15T16:36:36.052Z,3.40
2023-08-15T16:39:39.360Z,3.25
2023-08-15T16:42:41.667Z,3.10
2023-08-15T16:45:46.750Z,3.17
2023-08-15T16:48:49.284Z,3.00
2023-08-15T16:51:51.561Z,3.00
2023-08-15T16:54:53.785Z,3.17
2023-08-15T16:57:58.405Z,3.35
2023-08-15T17:01:00.674Z,3.10
2023-08-15T17:04:03.387Z,3.30
2023-08-15T17:07:05.776Z,2.87
2023-08-15T17:10:08.504Z,3.20
2023-08-15T17:13:10.826Z,3.30
2023-08-15T17:16:13.223Z,3.10
2023-08-15T17:19:15.459Z,3.33
2023-08-15T17:22:17.775Z,3.40
2023-08-15T17:25:20.005Z,3.08
2023-08-15T17:28:22.298Z,3.10
2023-08-15T17:31:24.628Z,3.40
2023-08-15T17:34:26.957Z,3.40
2023-08-15T17:37:29.200Z,3.70
2023-08-15T17:40:33.727Z,2.95
2023-08-15T17:43:37.390Z,3.67
2023-08-15T17:46:39.728Z,3.40
2023-08-15T17:49:42.038Z,3.08
2023-08-15T17:52:44.370Z,3.57
2023-08-15T17:55:46.584Z,3.25
2023-08-15T17:58:52.491Z,3.65
2023-08-15T18:01:55.002Z,3.72
2023-08-15T18:04:57.369Z,3.28
2023-08-15T18:07:59.633Z,3.57
2023-08-15T18:11:03.154Z,3.60
2023-08-15T18:14:07.501Z,3.28
2023-08-15T18:17:10.369Z,3.38
2023-08-15T18:20:12.600Z,3.60
2023-08-15T18:23:14.926Z,3.50
2023-08-15T18:26:17.226Z,3.95
2023-08-15T18:29:19.516Z,3.63
2023-08-15T18:32:22.176Z,4.00
2023-08-15T18:35:24.834Z,3.67
2023-08-15T18:38:31.247Z,3.60
2023-08-15T18:41:33.599Z,4.20
2023-08-15T18:44:35.824Z,3.88
2023-08-15T18:47:39.139Z,4.38
2023-08-15T18:50:45.407Z,4.00
2023-08-15T18:53:47.805Z,3.90
2023-08-15T18:56:50.137Z,3.72
2023-08-15T18:59:53.793Z,3.80
2023-08-15T19:02:56.125Z,3.70
2023-08-15T19:05:58.733Z,3.20
2023-08-15T19:09:00.979Z,3.57
2023-08-15T19:12:04.741Z,3.42
2023-08-15T19:15:07.627Z,3.60
2023-08-15T19:18:09.979Z,3.50
2023-08-15T19:21:14.214Z,3.50
2023-08-15T19:24:18.979Z,3.47
2023-08-15T19:27:22.048Z,3.92
2023-08-15T19:30:25.535Z,3.67
2023-08-15T19:33:27.882Z,3.55
2023-08-15T19:36:30.212Z,4.00
2023-08-15T19:39:32.527Z,4.20
2023-08-15T19:42:39.122Z,3.90
2023-08-15T19:45:41.415Z,3.95
2023-08-15T19:48:43.743Z,3.95
2023-08-15T19:51:45.984Z,3.67
2023-08-15T19:54:48.261Z,3.37
2023-08-15T19:57:50.606Z,3.50
2023-08-15T20:00:52.970Z,3.65
2023-08-15T20:03:55.205Z,3.42
2023-08-15T20:06:57.488Z,4.00
2023-08-15T20:10:10.901Z,3.43
2023-08-15T20:13:14.684Z,4.53
2023-08-15T20:16:16.966Z,4.03
2023-08-15T20:19:20.163Z,4.45
2023-08-15T20:22:23.102Z,4.18
2023-08-15T20:25:27.756Z,4.40
2023-08-15T20:28:30.021Z,4.00
2023-08-15T20:31:32.466Z,4.28
2023-08-15T20:34:34.899Z,4.07
2023-08-15T20:37:37.803Z,4.45
2023-08-15T20:40:40.304Z,4.70
2023-08-15T20:43:42.825Z,4.53
2023-08-15T20:46:45.130Z,4.55
2023-08-15T20:49:48.249Z,4.32
2023-08-15T20:52:51.735Z,4.40
2023-08-15T20:55:54.025Z,4.47
2023-08-15T20:58:56.661Z,4.30
2023-08-15T21:02:01.035Z,4.75
2023-08-15T21:05:04.276Z,4.50
2023-08-15T21:08:06.792Z,4.75
2023-08-15T21:11:09.309Z,5.03
2023-08-15T21:14:11.632Z,5.68
2023-08-15T21:17:13.863Z,6.07
2023-08-15T21:20:16.195Z,6.55
2023-08-15T21:23:18.549Z,6.70
2023-08-15T21:26:20.840Z,5.77
2023-08-15T21:29:23.068Z,6.30
2023-08-15T21:32:25.356Z,5.63
2023-08-15T21:35:27.654Z,5.68
2023-08-15T21:38:30.266Z,5.97
2023-08-15T21:41:32.515Z,5.73
2023-08-15T21:44:34.858Z,5.38
2023-08-15T21:47:37.243Z,5.68
2023-08-15T21:50:39.708Z,5.90
2023-08-15T21:53:42.000Z,5.60
2023-08-15T21:56:44.371Z,5.43
2023-08-15T21:59:46.705Z,5.97
2023-08-15T22:02:49.328Z,5.78
2023-08-15T22:05:51.641Z,5.70
2023-08-15T22:08:53.985Z,6.78
2023-08-15T22:11:56.229Z,5.83
2023-08-15T22:14:58.603Z,5.85
2023-08-15T22:18:18.832Z,5.63
2023-08-15T22:21:21.522Z,5.40
2023-08-15T22:24:23.996Z,5.70
2023-08-15T22:27:26.560Z,5.03
2023-08-15T22:30:28.810Z,5.60
2023-08-15T22:33:31.083Z,5.40
2023-08-15T22:36:34.101Z,5.22
2023-08-15T22:39:36.384Z,5.60
2023-08-15T22:42:38.594Z,4.87
2023-08-15T22:45:42.994Z,5.20
2023-08-15T22:48:45.305Z,5.82
2023-08-15T22:51:47.666Z,5.72
2023-08-15T22:54:49.961Z,5.35
2023-08-15T22:57:52.244Z,5.53
2023-08-15T23:00:58.160Z,4.85
2023-08-15T23:04:00.800Z,5.05
2023-08-15T23:07:03.134Z,4.90
2023-08-15T23:10:06.545Z,4.85
2023-08-15T23:13:08.840Z,4.70
2023-08-15T23:16:11.667Z,5.07
2023-08-15T23:19:13.999Z,4.78
2023-08-15T23:22:16.348Z,4.80
2023-08-15T23:25:18.595Z,4.97
2023-08-15T23:28:20.946Z,4.70
2023-08-15T23:31:32.859Z,5.00
2023-08-15T23:34:35.912Z,4.80
2023-08-15T23:37:38.732Z,4.50
2023-08-15T23:40:41.138Z,4.95
2023-08-15T23:43:43.366Z,4.80
2023-08-15T23:46:46.859Z,4.70
2023-08-15T23:49:49.256Z,5.03
2023-08-15T23:52:51.528Z,5.43
2023-08-15T23:55:53.729Z,5.05
2023-08-15T23:58:56.705Z,5.53
